Record high temperature 107.1°F Record low temperature 10.6°F Record high gust 49.5 mph Record high average 28.3 mph Record daily rain 11.65 in. Record low windchill 2.7°F Record high barometer 30.818 in. Record low barometer 29.078 in.
Daily high pressure 30.136 in. Daily low pressure 30.014 in. Daily low windchill 50.6°F Daily high heat index 80.4°F Daily high gust speed 11.5 mph WNW Daily high average speed 6.0 mph SSE
On the Greenway Weather data
LAST READING AT TIME: 9:19 PM DATE: August 20 2017, time of next update: 9:20 pm
Current WeatherNight time/Dry/Clear skies Current Temperature 71.5°F (21.9°C) (Heat Index 74.8°F ), Apparent temp 73.9°F
Maximum Temperature (since midnight)80.1°F at: 4:38 PM Minimum Temperature (since midnight)50.6°F at: 6:11 AM
Average windspeed (ten minute)1.5 mph Wind Direction (ten minute)SSE (161°)
Heat Index 74.8°F Maximum Gust (last hour)4.0 mph at: 8:40PM
Maximum Gust (since midnight)11.5 mph at: 5:24 PM Maximum 1 minute average (since midnight)6.0 mph at: 5:25 PM
Rainfall (last hour)0.00 in. (0.0 mm) Rainfall (since midnight)0.00 in. (0.0 mm) ---
Rainfall This month 0.13 in. (3.3 mm) Rainfall To date this year 55.66 in. (1413.8 mm)
Maximum rain per minute (last hour)0.00 in/min Maximum rain per hour (last 6 hours)0.00 in/hour
Yesterdays rainfall 0.00 in DewPoint 60.8°F (Wet Bulb :65.0°F )
Humidity 69 %, Humidex 79.8°F Barometer corrected to msl30.042 in. (1017.4 hPa)
Pressure change +0.02 in. (last hour) Trend (last hour)RISING SLOWLY
Pressure change (last 12 hours)-0.09 in Pressure change (last 6 hours)-0.00 in
Current Indoor Temp. 82.9°F
Current Indoor Hum. 33%
Current Solar 0 W/Mē
Maximum solar (since midnight) 0 W/Mē Minimum solar (since midnight)0 W/Mē
Current 00:00 hours of sunshine today, current sky: Night time/Dry/Clear skies
Sunshine hours for the year: 00:00 hrs Sunshine hours for the month: 00:00 hrs
Current evapotranspiration 0.05 inches per day. Yesterday's reading 0.05

This page is updated from recent data collected by a DAVIS VANTAGE PRO weather station Use the Reload or Refresh facility on your browser to retrieve the latest data.


Click here for the last 24 hour graph
Click here for the last 48 hour graph
Click here for the last 72 hour graph
Click here for the month to date graph


Weather report/warning/Metars

Expires:201708210700;;693605
FPUS56 KPQR 202212
ZFPPQR

Zone Forecasts for Northwest Oregon and Southwest Washington
National Weather Service Portland Oregon
312 PM PDT Sun Aug 20 2017

Spot Temperatures are for Tonight, Monday, Monday Night, 
Tuesday, Tuesday Night, and Wednesday.


ORZ006-WAZ039-210700-
Greater Portland Metro Area-Greater Vancouver Area-
Including the cities of Hillsboro, Portland, Wilsonville, 
Oregon City, Gresham, Troutdale, Vancouver, Battle Ground, 
Ridgefield, Washougal, Yacolt, and Amboy
312 PM PDT Sun Aug 20 2017

.TONIGHT...Mostly clear. Lows 55 to 60. Northwest wind 10 to 15 mph
decreasing to 5 to 10 mph after midnight. 
.MONDAY...Mostly sunny. Patchy morning low clouds. Highs 85 to 90. 
Light wind becoming north 5 to 10 mph in the afternoon. 
.MONDAY NIGHT...Clear. Lows 55 to 60. Northwest wind 10 to 15 mph
decreasing to 5 to 10 mph after midnight. 
.TUESDAY...Sunny. Highs around 85. Light wind. 
.TUESDAY NIGHT...Clear in the evening, then partly cloudy. Lows
55 to 60. Northwest wind 5 to 10 mph. 
.WEDNESDAY...Mostly cloudy in the morning, then mostly sunny. Highs
around 80. 
.WEDNESDAY NIGHT...Partly cloudy in the evening, then cloudy with a
20 percent chance of showers after midnight. Lows 55 to 60. 
.THURSDAY...Mostly cloudy with a 20 percent chance of showers. Highs
around 75. 
.THURSDAY NIGHT...Mostly cloudy. A 20 percent chance of showers in
the evening. Lows 50 to 55. 
.FRIDAY...Mostly cloudy in the morning, then mostly sunny. Highs
around 80. 
.FRIDAY NIGHT...Mostly clear. Lows 50 to 55. 
.SATURDAY...Sunny. Highs 85 to 90. 
.SATURDAY NIGHT...Clear. Lows 55 to 60. 
.SUNDAY...Sunny. Highs around 90. 

&&
                    TEMPERATURE           
Portland          60  88  62  86  62  81
Hillsboro         55  89  58  87  58  82

$$
=


PORTLAND-HILLSBORO AIRPORT, OR, United States (KHIO) 45-33N 122-57W 68M
Aug 20, 2017 - 11:53 PM EDT / 2017.08.21 0353 UTC
Wind: from the NW (320 degrees) at 14 MPH (12 KT):0
Visibility: 10 mile(s):0
Sky conditions: clear
Temperature: 70.0 F (21.1 C)
Dew Point: 57.9 F (14.4 C)
Relative Humidity: 65%
Pressure (altimeter): 30.06 in. Hg (1017 hPa)
ob: KHIO 210353Z 32012KT 10SM CLR 21/14 A3006 RMK AO2 SLP176 T02110144
cycle: 4
PORTLAND INTERNATIONAL  AIRPORT, OR, United States (KPDX) 45-35N 122-36W 7M
Aug 20, 2017 - 11:53 PM EDT / 2017.08.21 0353 UTC
Wind: from the NNW (340 degrees) at 10 MPH (9 KT) gusting to 17 MPH (15 KT):0
Visibility: 10 mile(s):0
Sky conditions: mostly clear
Temperature: 73.0 F (22.8 C)
Dew Point: 57.9 F (14.4 C)
Relative Humidity: 59%
Pressure (altimeter): 30.05 in. Hg (1017 hPa)
ob: KPDX 210353Z 34009G15KT 10SM FEW160 FEW250 23/14 A3005 RMK AO2 SLP174 T02280144
cycle: 4
PORTLAND-TROUTDALE AIRPORT, OR, United States (KTTD) 45-33N 122-25W 14M
Aug 20, 2017 - 11:53 PM EDT / 2017.08.21 0353 UTC
Wind: from the NW (310 degrees) at 3 MPH (3 KT):0
Visibility: 10 mile(s):0
Sky conditions: clear
Temperature: 73.0 F (22.8 C)
Dew Point: 57.0 F (13.9 C)
Relative Humidity: 57%
Pressure (altimeter): 30.04 in. Hg (1017 hPa)
ob: KTTD 210353Z 31003KT 10SM CLR 23/14 A3004 RMK AO2 SLP172 T02280139
cycle: 4
MCMINNVILLE MUNICIPAL AIRPORT , OR, United States (KMMV) 45-12N 123-08W 48M
Aug 20, 2017 - 11:53 PM EDT / 2017.08.21 0353 UTC
Wind: from the NNE (030 degrees) at 12 MPH (10 KT):0
Visibility: 10 mile(s):0
Sky conditions: clear
Temperature: 73.9 F (23.3 C)
Dew Point: 57.0 F (13.9 C)
Relative Humidity: 55%
Pressure (altimeter): 30.05 in. Hg (1017 hPa)
ob: KMMV 210353Z AUTO 03010KT 10SM CLR 23/14 A3005 RMK AO2 SLP175 T02330139 
cycle: 4
SALEM MCNARY FIELD, OR, United States (KSLE) 44-54N 123-00W 59M
Aug 20, 2017 - 11:56 PM EDT / 2017.08.21 0356 UTC
Wind: from the NNE (030 degrees) at 8 MPH (7 KT):0
Visibility: 10 mile(s):0
Sky conditions: clear
Temperature: 73.9 F (23.3 C)
Dew Point: 52.0 F (11.1 C)
Relative Humidity: 46%
Pressure (altimeter): 30.04 in. Hg (1017 hPa)
ob: KSLE 210356Z AUTO 03007KT 10SM CLR 23/11 A3004 RMK AO2 SLP170 T02330111
cycle: 4
REDMOND ROBERTS FIELD, OR, United States (KRDM) 44-15N 121-08W
Aug 20, 2017 - 11:56 PM EDT / 2017.08.21 0356 UTC
Wind: from the N (360 degrees) at 5 MPH (4 KT):0
Visibility: 10 mile(s):0
Sky conditions: clear
Temperature: 73.0 F (22.8 C)
Dew Point: 30.0 F (-1.1 C)
Relative Humidity: 20%
Pressure (altimeter): 30.07 in. Hg (1018 hPa)
ob: KRDM 210356Z AUTO 36004KT 10SM CLR 23/M01 A3007 RMK AO2 SLP162 T02281011
cycle: 4

Date: 8/20/2017
Sunrise at:
06:18 am

Sunset at:
08:11 pm

Moonrise at:
04:57 am 08/20/17

Moonset at:
06:50 pm 08/19/17

First Quarter  July 30 2017
Full moon  August 7 2017
Last QuarterAugust 15 2017
New moon August 21 2017
Moon age: 27 days,22 hours,15 minutes,3%
Hours of possible daylight today was 13:53:00



Use the RELOAD facility on your browser to retrieve the latest data.

Click here for current Fire weather info
Click here for the daily CLIMATOLOGICAL SUMMARY
Click here for a daily update of the averages/extremes to date for the month




Created by "Weather Display" software version 10.37R at this start time/date 5:42:06 PM 2/5/2017




On The Greenway Weather Web Site

 
 
HELP US OUT
Help us keep this weather station on the web. for the Tigard / Portland internet users to use. If you would like to help, click the donate button below
 
This site is purely funded by donations and by myself (Ray Cooper)
Anything you can do will help keep this station on the net
Average cost per year is $665 to publish and host this site excluding the cost of the weather equipment
Buyastrostuff.com is kind enough to host our DNS and email at no cost.
THANKS GUYS & Gals for helping
Have a Question,or just want to talk. Contact me at:
Ray Cooper @ Buyastrostuff.com
 

Weather Underground PWS KORTIGAR12 Weather Underground PWS KORTIGAR12